createdAt,value
2022-12-08T00:03:17.619Z,12.93
2022-12-08T00:08:39.238Z,14.57
2022-12-08T00:13:42.943Z,13.43
2022-12-08T00:18:45.564Z,15.43
2022-12-08T00:23:50.226Z,17.35
2022-12-08T00:28:55.974Z,16.27
2022-12-08T00:34:00.728Z,14.88
2022-12-08T00:39:03.251Z,15.65
2022-12-08T00:44:09.763Z,14.85
2022-12-08T00:49:11.950Z,14.02
2022-12-08T00:54:17.043Z,14.30
2022-12-08T00:59:24.028Z,14.27
2022-12-08T01:04:39.701Z,13.60
2022-12-08T01:09:41.633Z,14.02
2022-12-08T01:14:45.606Z,15.77
2022-12-08T01:19:50.811Z,16.52
2022-12-08T01:24:55.053Z,11.43
2022-12-08T01:30:00.186Z,14.90
2022-12-08T01:35:09.762Z,14.68
2022-12-08T01:40:15.113Z,12.90
2022-12-08T01:45:58.235Z,12.05
2022-12-08T01:51:05.382Z,11.68
2022-12-08T01:56:13.744Z,14.57
2022-12-08T02:05:25.033Z,12.45
2022-12-08T02:10:33.915Z,12.32
2022-12-08T02:16:24.678Z,14.10
2022-12-08T02:21:58.089Z,13.05
2022-12-08T02:27:26.628Z,14.60
2022-12-08T02:33:07.725Z,15.90
2022-12-08T02:38:54.223Z,19.08
2022-12-08T02:44:32.225Z,13.18
2022-12-08T02:49:40.136Z,12.55
2022-12-08T02:54:46.307Z,14.82
2022-12-08T03:00:36.268Z,11.18
2022-12-08T03:06:17.625Z,11.82
2022-12-08T03:11:31.207Z,10.35
2022-12-08T03:16:42.879Z,12.02
2022-12-08T03:21:53.006Z,16.02
2022-12-08T03:27:19.878Z,14.75
2022-12-08T03:32:47.938Z,12.65
2022-12-08T03:37:53.536Z,14.98
2022-12-08T03:43:04.512Z,14.07
2022-12-08T03:48:11.040Z,12.45
2022-12-08T03:53:13.936Z,11.57
2022-12-08T03:58:21.029Z,13.07
2022-12-08T04:03:23.524Z,13.57
2022-12-08T04:08:28.217Z,14.38
2022-12-08T04:13:33.647Z,12.95
2022-12-08T04:18:44.683Z,13.00
2022-12-08T04:23:49.282Z,14.65
2022-12-08T04:34:00.316Z,10.43
2022-12-08T04:39:06.845Z,12.43
2022-12-08T04:44:11.837Z,15.38
2022-12-08T04:49:13.664Z,17.88
2022-12-08T04:54:18.143Z,14.48
2022-12-08T04:59:21.921Z,13.02
2022-12-08T05:04:28.719Z,14.75
2022-12-08T05:13:41.602Z,11.55
2022-12-08T05:33:25.597Z,13.10
2022-12-08T05:38:27.516Z,13.43
2022-12-08T05:43:29.567Z,15.73
2022-12-08T05:48:31.574Z,16.45
2022-12-08T05:53:33.504Z,17.02
2022-12-08T05:58:35.370Z,12.80
2022-12-08T06:03:37.240Z,16.02
2022-12-08T06:08:39.207Z,16.48
2022-12-08T06:13:41.091Z,19.02
2022-12-08T06:18:45.845Z,15.93
2022-12-08T06:23:52.596Z,15.45
2022-12-08T06:28:54.611Z,14.90
2022-12-08T06:33:56.539Z,15.35
2022-12-08T06:38:59.986Z,13.30
2022-12-08T06:44:01.989Z,13.32
2022-12-08T06:49:03.945Z,13.07
2022-12-08T06:54:06.108Z,14.75
2022-12-08T06:59:07.962Z,18.45
2022-12-08T07:04:09.944Z,11.90
2022-12-08T07:09:12.038Z,13.15
2022-12-08T07:14:14.065Z,17.23
2022-12-08T07:19:18.562Z,19.27
2022-12-08T07:24:20.616Z,16.02
2022-12-08T07:29:26.215Z,14.27
2022-12-08T07:34:28.528Z,19.05
2022-12-08T07:39:30.933Z,17.33
2022-12-08T07:44:35.961Z,18.77
2022-12-08T07:49:41.558Z,20.40
2022-12-08T07:54:43.568Z,20.40
2022-12-08T07:59:45.530Z,19.40
2022-12-08T08:04:50.881Z,19.20
2022-12-08T08:09:54.742Z,14.20
2022-12-08T08:14:57.055Z,19.45
2022-12-08T08:19:59.515Z,17.35
2022-12-08T08:25:01.490Z,20.42
2022-12-08T08:30:04.821Z,15.50
2022-12-08T08:35:11.953Z,15.43
2022-12-08T08:40:14.123Z,20.35
2022-12-08T08:45:16.236Z,21.35
2022-12-08T08:50:18.329Z,19.02
2022-12-08T08:55:29.665Z,17.05
2022-12-08T09:00:35.231Z,20.40
2022-12-08T09:05:42.084Z,23.58
2022-12-08T09:10:44.560Z,25.52
2022-12-08T09:15:47.510Z,23.85
2022-12-08T09:20:49.534Z,25.85
2022-12-08T09:25:51.550Z,25.33
2022-12-08T09:30:53.634Z,26.23
2022-12-08T09:35:55.784Z,27.67
2022-12-08T09:46:01.812Z,26.85
2022-12-08T09:51:05.610Z,28.55
2022-12-08T09:56:21.972Z,22.58
2022-12-08T10:01:29.056Z,22.92
2022-12-08T10:06:41.668Z,22.02
2022-12-08T10:12:20.987Z,22.27
2022-12-08T10:17:34.588Z,23.48
2022-12-08T10:22:41.268Z,24.83
2022-12-08T10:27:51.538Z,28.40
2022-12-08T10:32:59.064Z,28.73
2022-12-08T10:43:05.980Z,29.73
2022-12-08T10:48:16.774Z,32.28
2022-12-08T10:53:30.452Z,27.95
2022-12-08T10:58:37.230Z,25.73
2022-12-08T11:03:45.426Z,30.27
2022-12-08T11:08:58.816Z,27.10
2022-12-08T11:14:08.090Z,26.70
2022-12-08T11:19:16.353Z,21.35
2022-12-08T11:24:29.257Z,22.80
2022-12-08T11:29:37.645Z,29.20
2022-12-08T11:34:52.151Z,18.48
2022-12-08T11:39:58.286Z,16.50
2022-12-08T11:45:07.804Z,15.05
2022-12-08T11:50:29.764Z,19.42
2022-12-08T11:55:48.136Z,19.58
2022-12-08T12:00:51.716Z,19.30
2022-12-08T12:06:53.009Z,21.85
2022-12-08T12:12:20.764Z,21.90
2022-12-08T12:17:51.141Z,19.52
2022-12-08T12:23:01.696Z,23.58
2022-12-08T12:28:08.049Z,18.27
2022-12-08T12:33:16.494Z,15.23
2022-12-08T12:38:54.593Z,22.30
2022-12-08T12:44:15.338Z,23.60
2022-12-08T12:49:43.990Z,23.60
2022-12-08T12:54:52.586Z,22.85
2022-12-08T13:00:05.046Z,27.35
2022-12-08T13:05:27.449Z,30.98
2022-12-08T13:10:33.959Z,24.38
2022-12-08T13:15:41.962Z,28.17
2022-12-08T13:20:50.605Z,23.80
2022-12-08T13:26:08.029Z,27.58
2022-12-08T13:31:48.551Z,31.27
2022-12-08T13:36:52.831Z,28.10
2022-12-08T13:42:02.747Z,26.48
2022-12-08T13:47:32.942Z,31.77
2022-12-08T13:57:59.575Z,31.08
2022-12-08T14:03:02.460Z,76.68
2022-12-08T14:08:30.056Z,50.10
2022-12-08T14:13:37.934Z,49.03
2022-12-08T14:18:40.150Z,35.95
2022-12-08T14:23:44.346Z,38.95
2022-12-08T14:28:49.780Z,37.45
2022-12-08T14:33:56.369Z,46.63
2022-12-08T14:38:59.153Z,42.47
2022-12-08T14:44:02.361Z,38.45
2022-12-08T14:49:04.488Z,49.95
2022-12-08T14:59:30.553Z,37.45
2022-12-08T15:04:32.901Z,51.50
2022-12-08T15:14:41.958Z,36.73
2022-12-08T15:19:58.566Z,34.03
2022-12-08T15:25:01.073Z,41.88
2022-12-08T15:30:03.597Z,42.28
2022-12-08T15:35:06.679Z,40.35
2022-12-08T15:40:17.993Z,34.08
2022-12-08T15:45:26.456Z,36.58
2022-12-08T15:50:28.491Z,31.90
2022-12-08T15:55:33.087Z,31.13
2022-12-08T16:00:52.401Z,31.25
2022-12-08T16:06:44.282Z,25.08
2022-12-08T16:12:05.305Z,32.85
2022-12-08T16:17:03.221Z,33.17
2022-12-08T16:28:05.234Z,28.77
2022-12-08T16:33:15.022Z,28.45
2022-12-08T16:43:19.386Z,23.23
2022-12-08T16:48:22.623Z,27.17
2022-12-08T16:53:24.837Z,32.42
2022-12-08T16:58:28.125Z,30.02
2022-12-08T17:03:35.958Z,30.27
2022-12-08T17:08:38.915Z,24.45
2022-12-08T17:13:41.975Z,28.00
2022-12-08T17:18:44.269Z,22.52
2022-12-08T17:29:04.033Z,28.45
2022-12-08T17:34:11.083Z,32.58
2022-12-08T17:39:18.481Z,33.08
2022-12-08T17:44:21.233Z,29.23
2022-12-08T17:49:25.738Z,38.50
2022-12-08T17:54:29.013Z,34.17
2022-12-08T17:59:31.412Z,33.72
2022-12-08T18:04:33.387Z,31.90
2022-12-08T18:09:35.396Z,24.83
2022-12-08T18:15:02.399Z,21.30
2022-12-08T18:20:05.766Z,29.00
2022-12-08T18:25:08.994Z,26.90
2022-12-08T18:30:17.852Z,34.13
2022-12-08T18:35:20.009Z,28.98
2022-12-08T18:40:22.581Z,23.92
2022-12-08T18:45:24.794Z,28.25
2022-12-08T18:55:31.386Z,24.13
2022-12-08T19:00:42.642Z,28.60
2022-12-08T19:05:44.741Z,30.27
2022-12-08T19:10:46.726Z,32.38
2022-12-08T19:15:48.819Z,30.42
2022-12-08T19:20:56.912Z,28.55
2022-12-08T19:25:59.246Z,53.20
2022-12-08T19:36:13.753Z,50.08
2022-12-08T19:41:34.863Z,49.90
2022-12-08T19:46:40.367Z,49.05
2022-12-08T19:51:42.965Z,56.45
2022-12-08T20:01:54.003Z,51.40
2022-12-08T20:06:59.334Z,44.42
2022-12-08T20:17:03.286Z,39.37
2022-12-08T20:22:09.080Z,85.35
2022-12-08T20:27:11.141Z,55.30
2022-12-08T20:32:13.287Z,40.80
2022-12-08T20:37:15.420Z,44.50
2022-12-08T20:42:25.140Z,49.38
2022-12-08T20:47:27.417Z,55.17
2022-12-08T20:57:31.515Z,50.10
2022-12-08T21:02:33.744Z,40.78
2022-12-08T21:07:36.000Z,44.15
2022-12-08T21:12:38.033Z,48.00
2022-12-08T21:17:40.104Z,51.03
2022-12-08T21:27:48.972Z,72.57
2022-12-08T21:32:51.118Z,50.75
2022-12-08T21:37:53.272Z,41.20
2022-12-08T21:42:55.423Z,46.83
2022-12-08T21:47:59.532Z,49.25
2022-12-08T21:53:03.481Z,53.78
2022-12-08T21:58:05.945Z,58.33
2022-12-08T22:03:13.075Z,53.45
2022-12-08T22:08:15.361Z,39.05
2022-12-08T22:13:17.486Z,37.05
2022-12-08T22:18:19.611Z,28.15
2022-12-08T22:23:21.711Z,29.42
2022-12-08T22:28:23.606Z,29.55
2022-12-08T22:33:25.638Z,26.27
2022-12-08T22:38:31.126Z,24.23
2022-12-08T22:43:34.636Z,24.45
2022-12-08T22:48:40.089Z,25.48
2022-12-08T22:53:42.397Z,23.55
2022-12-08T23:03:46.941Z,20.10
2022-12-08T23:08:49.429Z,21.35
2022-12-08T23:13:52.232Z,24.70
2022-12-08T23:18:54.542Z,24.40
2022-12-08T23:23:56.719Z,24.55
2022-12-08T23:28:59.566Z,24.38
2022-12-08T23:34:04.487Z,21.90
2022-12-08T23:39:06.847Z,25.33
2022-12-08T23:44:11.996Z,26.30
2022-12-08T23:49:14.743Z,26.20
2022-12-08T23:54:17.095Z,24.25
